Strona główna
METAR-TAF:

METAR-TAF

Lotnisko :

Port lotniczy Arvidsjaur

Arvidsjaur, Szwecja

Szerokość geograficzna: 65-35-25N, Długość geograficzna: 019-16-55E, wysokość: 379 m

Aktualna obserwacja pogody

Raport powstał 33 minut temu, godzina 10:20 UTC
Wiatr 10 kt od północny zachód
Temperatura -4°C
Wilgotność 68%
Ciśnienie 980 hPa
Widzialność 10 km lub więcej

METAR: ESNX 031020Z AUTO 32010KT 9999 BKN025/// M04/M09 Q0980

czas: 12:53 (10:53 UTC)

Prognoza

Raport powstał 5 godziny i 23 minut temu, godzina 05:30 UTC
Prognoza ważna od 03 godzina 06 UTC do 03 godzina 08 UTC
Wiatr 7 kt od północno-północny zachód
Widzialność 10 km lub więcej
Przerywane chmury na wysokości 1600 ft
słaby śnieg
Przejściowo
od 03 godzina 06 UTC do 03 godzina 07 UTC
Przerywane chmury na wysokości 1200 ft

TAF: ESNX 030530Z 0306/0308 33007KT 9999 -SN BKN016 TEMPO 0306/0307 BKN012

Obserwacja i prognoza pogody dla ponad 4000 lotnisk (raport METAR i TAF).

Dostępne stacje oznaczono żółtymi i czerwonymi punktami na mapie.

Najedź kursorem aby zobaczyć nazwę stacji.

Kliknij aby zobaczyć obserwacje i prognozy pogody.

Aby zmienić mapę: kliknij na zielony przycisk z czarnym krzyżykiem, aby powiększyć; na zielony przycisk z myślnikiem, aby pomniejszyć; na zielone strzałki, aby przejść do map sąsiednich.


METAR-TAF: